Time;durP1;ratioP1;P1;durP2;ratioP2;P2;SDS_P1;SDS_P2;PMS_P1;PMS_P2;Temp;Humidity;BMP_temperature;BMP_pressure;BME280_temperature;BME280_humidity;BME280_pressure;Samples;Min_cycle;Max_cycle;Signal;HPM_P1;HPM_P2
2021/04/24 00:01:11;;;;;;;9.18;7.50;;;;;;;9.77;52.41;94937.89;829678;70;30285;-79
2021/04/24 00:16:09;;;;;;;10.98;6.72;;;;;;;9.67;52.18;94947.12;828431;71;30332;-79
2021/04/24 00:31:08;;;;;;;8.10;6.42;;;;;;;9.61;52.21;94951.59;835267;71;29708;-78
2021/04/24 00:46:15;;;;;;;9.20;7.08;;;;;;;9.51;52.13;94938.55;827266;71;32651;-79
2021/04/24 01:01:15;;;;;;;15.30;7.60;;;;;;;9.39;52.71;94950.64;833766;71;32783;-80
2021/04/24 01:16:09;;;;;;;12.90;7.55;;;;;;;9.27;53.80;94953.31;834545;71;29807;-79
2021/04/24 01:31:18;;;;;;;11.33;7.80;;;;;;;9.09;55.03;94952.83;833748;71;32692;-79
2021/04/24 01:46:10;;;;;;;13.03;7.50;;;;;;;8.93;55.73;94946.85;828420;71;29707;-79
2021/04/24 02:01:12;;;;;;;12.05;7.60;;;;;;;8.79;56.50;94954.46;829183;71;30787;-77
2021/04/24 02:16:16;;;;;;;9.68;7.85;;;;;;;8.59;57.07;94955.27;829900;71;33217;-77
2021/04/24 02:31:08;;;;;;;13.18;8.20;;;;;;;8.47;57.42;94954.75;827779;71;29779;-79
2021/04/24 02:46:16;;;;;;;14.80;7.35;;;;;;;8.37;58.61;94949.00;828304;71;32720;-79
2021/04/24 03:01:49;;;;;;;9.45;7.47;;;;;;;8.28;58.93;94955.00;833176;71;33168;-76
2021/04/24 03:16:09;;;;;;;10.50;7.58;;;;;;;8.21;58.77;94961.28;827418;71;30677;-79
2021/04/24 03:31:14;;;;;;;10.43;8.00;;;;;;;8.23;59.10;94963.61;827178;71;33566;-79
2021/04/24 03:46:08;;;;;;;12.73;8.30;;;;;;;8.66;58.70;94951.09;827726;71;29716;-78
2021/04/24 04:01:15;;;;;;;17.35;11.20;;;;;;;10.20;54.68;94966.20;826815;71;32897;-78
2021/04/24 04:16:09;;;;;;;14.15;10.35;;;;;;;9.50;55.41;94982.80;833496;71;30274;-79
2021/04/24 04:31:12;;;;;;;16.20;8.95;;;;;;;9.30;55.47;94979.73;833549;71;31384;-78
2021/04/24 04:46:15;;;;;;;14.50;10.18;;;;;;;9.35;55.71;94982.34;827045;71;32786;-78
2021/04/24 05:01:15;;;;;;;17.62;10.85;;;;;;;9.47;54.19;94970.26;826819;71;33287;-78
2021/04/24 05:16:09;;;;;;;14.65;8.93;;;;;;;9.80;53.50;94970.09;827795;71;30188;-79
2021/04/24 05:31:09;;;;;;;11.88;8.10;;;;;;;10.26;52.16;94990.52;829199;71;29704;-80
2021/04/24 05:46:08;;;;;;;12.30;9.60;;;;;;;10.93;51.25;94976.36;818621;71;29783;-78
2021/04/24 06:01:10;;;;;;;17.17;11.95;;;;;;;11.85;49.31;94990.34;833996;71;30293;-82
2021/04/24 06:16:22;;;;;;;15.80;10.72;;;;;;;13.08;46.55;94992.44;830253;70;32680;-83
2021/04/24 06:31:14;;;;;;;14.60;9.25;;;;;;;14.71;42.83;94986.23;829889;70;32715;-81
2021/04/24 06:46:14;;;;;;;8.00;7.20;;;;;;;16.07;38.27;94991.92;825814;71;32720;-80
2021/04/24 07:01:15;;;;;;;10.80;7.58;;;;;;;16.65;36.05;94984.05;827177;71;32685;-82
2021/04/24 07:16:14;;;;;;;10.10;6.12;;;;;;;17.15;34.46;94984.05;827956;71;30860;-82
2021/04/24 07:31:16;;;;;;;11.00;7.53;;;;;;;17.86;33.02;94991.41;821029;71;32978;-84
2021/04/24 07:46:08;;;;;;;9.20;6.80;;;;;;;18.13;31.48;94969.47;829302;71;30209;-80
2021/04/24 08:01:08;;;;;;;8.08;7.00;;;;;;;18.47;31.06;94974.27;827940;71;29637;-80
2021/04/24 08:16:09;;;;;;;9.38;6.20;;;;;;;18.77;28.68;94959.75;829007;71;29773;-83
2021/04/24 08:31:10;;;;;;;7.40;6.70;;;;;;;20.44;33.19;94953.10;811556;71;31061;-74
2021/04/24 08:46:08;;;;;;;6.55;5.60;;;;;;;19.88;27.11;94921.86;828011;71;29696;-75
2021/04/24 09:01:49;;;;;;;6.95;5.85;;;;;;;19.54;26.87;94905.22;833603;71;29963;-75
2021/04/24 09:16:12;;;;;;;8.23;6.30;;;;;;;19.78;26.32;94875.92;827447;71;30235;-75
2021/04/24 09:31:19;;;;;;;9.43;6.37;;;;;;;19.27;26.16;94859.56;833199;71;30785;-76
2021/04/24 09:46:09;;;;;;;6.50;5.78;;;;;;;19.27;26.22;94846.81;818521;71;30276;-76
2021/04/24 10:01:23;;;;;;;7.53;5.87;;;;;;;18.37;26.48;94830.09;827728;71;29705;-76
2021/04/24 10:16:09;;;;;;;8.50;6.17;;;;;;;17.30;27.39;94805.05;832858;71;30196;-75
2021/04/24 10:31:10;;;;;;;9.28;6.35;;;;;;;17.19;28.12;94790.05;827508;71;29947;-77
2021/04/24 10:46:27;;;;;;;9.60;6.35;;;;;;;17.02;28.75;94787.73;828925;70;32893;-76
2021/04/24 11:01:12;;;;;;;8.35;6.60;;;;;;;16.59;28.87;94795.32;827733;71;32009;-76
2021/04/24 11:16:11;;;;;;;10.48;6.22;;;;;;;16.46;29.67;94810.86;834230;71;29716;-76
2021/04/24 11:31:15;;;;;;;12.15;6.95;;;;;;;15.71;31.12;94813.76;826770;71;32803;-75
2021/04/24 11:46:18;;;;;;;9.10;6.80;;;;;;;15.34;31.03;94811.96;833196;71;33155;-75
2021/04/24 12:01:23;;;;;;;8.30;6.55;;;;;;;15.59;31.61;94808.31;827841;71;29660;-76
2021/04/24 12:16:09;;;;;;;7.33;5.80;;;;;;;16.32;30.53;94779.83;829202;71;29715;-75
2021/04/24 12:31:32;;;;;;;10.45;5.65;;;;;;;17.01;29.09;94751.73;831976;71;32825;-75
2021/04/24 12:46:28;;;;;;;6.65;5.33;;;;;;;17.86;27.75;94724.59;826245;71;33402;-74
2021/04/24 13:01:16;;;;;;;7.55;5.25;;;;;;;20.55;35.71;94686.23;835026;71;29651;-77
2021/04/24 13:16:24;;;;;;;6.30;5.70;;;;;;;20.95;25.47;94670.56;833098;71;32693;-74
2021/04/24 13:31:11;;;;;;;8.65;6.25;;;;;;;18.98;26.34;94673.08;824666;70;29770;-74
2021/04/24 13:46:26;;;;;;;6.72;6.03;;;;;;;17.55;27.03;94663.44;831562;70;30247;-74
2021/04/24 14:01:19;;;;;;;8.85;5.53;;;;;;;16.24;28.53;94645.06;824798;71;33575;-76
2021/04/24 14:16:10;;;;;;;8.10;5.83;;;;;;;16.17;28.60;94600.54;827222;71;29709;-75
2021/04/24 14:31:16;;;;;;;8.60;5.20;;;;;;;16.23;29.26;94630.27;822960;71;32830;-74
2021/04/24 14:46:16;;;;;;;8.15;5.53;;;;;;;16.52;28.33;94624.72;827214;71;32628;-75
2021/04/24 15:01:43;;;;;;;7.15;5.35;;;;;;;16.60;27.68;94618.58;827690;71;31376;-75
2021/04/24 15:16:07;;;;;;;6.72;5.42;;;;;;;16.43;28.09;94624.22;828008;71;29712;-75
2021/04/24 15:31:11;;;;;;;7.20;5.37;;;;;;;16.51;28.07;94617.33;833001;71;32900;-77
2021/04/24 15:46:06;;;;;;;5.10;4.60;;;;;;;16.37;28.47;94614.91;828111;71;28330;-74
2021/04/24 16:01:13;;;;;;;7.62;5.53;;;;;;;16.29;28.86;94607.03;827942;71;32605;-75
2021/04/24 16:16:09;;;;;;;6.67;5.17;;;;;;;16.18;29.07;94592.84;833728;71;30228;-75
2021/04/24 16:31:13;;;;;;;7.95;5.70;;;;;;;16.10;29.75;94591.55;827762;71;32598;-75
2021/04/24 16:46:15;;;;;;;7.58;6.20;;;;;;;15.85;29.55;94595.33;828860;71;32695;-74
2021/04/24 17:01:08;;;;;;;7.00;5.58;;;;;;;15.61;30.39;94609.08;827655;71;29856;-75
2021/04/24 17:16:15;;;;;;;8.78;6.67;;;;;;;15.26;33.89;94630.31;833511;71;32722;-78
2021/04/24 17:31:08;;;;;;;7.42;6.67;;;;;;;14.77;36.03;94646.34;833692;71;30160;-79
2021/04/24 17:46:18;;;;;;;9.48;7.22;;;;;;;14.18;38.48;94657.78;824630;71;33276;-76
2021/04/24 18:01:10;;;;;;;10.55;7.97;;;;;;;13.86;40.48;94652.31;834999;71;30213;-77
2021/04/24 18:16:19;;;;;;;11.30;9.18;;;;;;;13.38;44.74;94665.61;792713;74;32926;-78
2021/04/24 18:31:15;;;;;;;9.78;8.70;;;;;;;13.20;46.59;94693.70;827832;71;32751;-77
2021/04/24 18:46:19;;;;;;;14.45;10.68;;;;;;;12.70;48.95;94706.36;824272;71;32878;-79
2021/04/24 19:01:10;;;;;;;18.12;10.00;;;;;;;11.81;51.03;94716.15;827801;71;29678;-78
2021/04/24 19:16:14;;;;;;;12.33;9.40;;;;;;;11.58;53.13;94729.69;825087;71;32089;-79
2021/04/24 19:31:09;;;;;;;13.32;10.00;;;;;;;11.29;53.95;94722.52;833555;71;30414;-77
2021/04/24 19:46:14;;;;;;;13.28;10.93;;;;;;;10.98;55.04;94715.08;814301;71;33036;-79
2021/04/24 20:01:17;;;;;;;12.78;10.15;;;;;;;10.81;55.33;94712.42;827043;71;32805;-78
2021/04/24 20:16:12;;;;;;;16.20;11.93;;;;;;;10.53;57.15;94733.77;833553;71;30448;-77
2021/04/24 20:31:14;;;;;;;14.35;11.35;;;;;;;10.59;56.38;94732.64;827851;71;29691;-78
2021/04/24 20:46:08;;;;;;;12.25;10.90;;;;;;;10.69;56.43;94738.84;828016;71;30212;-79
2021/04/24 21:01:41;;;;;;;19.50;16.10;;;;;;;10.62;57.57;94740.48;827751;71;30195;-78
2021/04/24 21:16:20;;;;;;;24.07;16.97;;;;;;;10.53;58.61;94740.87;826677;71;33049;-77
2021/04/24 21:31:08;;;;;;;22.35;15.70;;;;;;;10.42;59.18;94737.22;828129;71;29769;-79
2021/04/24 21:46:17;;;;;;;24.12;15.00;;;;;;;10.33;59.67;94736.63;829034;70;33278;-79
2021/04/24 22:01:08;;;;;;;17.82;12.85;;;;;;;10.14;59.61;94734.70;828434;71;29808;-79
2021/04/24 22:16:14;;;;;;;18.77;11.05;;;;;;;9.95;59.42;94720.20;833828;71;32911;-79
2021/04/24 22:31:15;;;;;;;16.10;13.25;;;;;;;9.74;60.26;94713.60;826767;71;32665;-78
2021/04/24 22:46:30;;;;;;;22.22;16.40;;;;;;;9.67;62.16;94707.89;833284;71;33181;-78
2021/04/24 23:01:12;;;;;;;26.85;18.87;;;;;;;9.47;62.95;94690.00;834678;71;32176;-79
2021/04/24 23:16:16;;;;;;;27.22;17.50;;;;;;;9.27;63.70;94685.71;827210;71;32766;-79
2021/04/24 23:31:12;;;;;;;20.45;15.90;;;;;;;9.13;64.31;94682.94;833956;71;32039;-79
2021/04/24 23:46:15;;;;;;;25.25;17.50;;;;;;;9.01;64.49;94657.64;827803;71;33150;-77
